createdAt,value
2023-03-13T00:00:05.965Z,0.22
2023-03-13T00:00:28.450Z,0.21
2023-03-13T00:00:50.660Z,0.20
2023-03-13T00:01:15.794Z,0.19
2023-03-13T00:01:42.054Z,0.18
2023-03-13T00:02:04.413Z,0.17
2023-03-13T00:02:26.541Z,0.16
2023-03-13T00:02:49.775Z,0.15
2023-03-13T00:03:11.460Z,0.14
2023-03-13T00:03:33.552Z,0.13
2023-03-13T00:04:02.706Z,0.13
2023-03-13T00:04:26.936Z,0.12
2023-03-13T00:04:52.283Z,0.12
2023-03-13T00:05:23.926Z,0.13
2023-03-13T00:05:48.346Z,0.13
2023-03-13T00:06:10.434Z,0.13
2023-03-13T00:06:37.539Z,0.13
2023-03-13T00:06:59.220Z,0.14
2023-03-13T00:07:21.660Z,0.14
2023-03-13T00:08:13.677Z,0.14
2023-03-13T00:08:39.654Z,0.14
2023-03-13T00:09:01.949Z,0.15
2023-03-13T00:09:26.699Z,0.15
2023-03-13T00:09:48.891Z,0.14
2023-03-13T00:10:11.600Z,0.13
2023-03-13T00:10:35.973Z,0.12
2023-03-13T00:10:57.752Z,0.11
2023-03-13T00:11:19.334Z,0.11
2023-03-13T00:11:41.099Z,0.10
2023-03-13T00:12:03.434Z,0.09
2023-03-13T00:12:29.811Z,0.07
2023-03-13T00:13:25.305Z,0.05
2023-03-13T00:13:48.844Z,0.03
2023-03-13T00:14:13.762Z,0.02
2023-03-13T00:14:36.488Z,0.01
2023-03-13T00:15:08.301Z,0.01
2023-03-13T00:15:33.113Z,0.01
2023-03-13T00:16:00.878Z,0.01
2023-03-13T00:16:23.006Z,0.01
2023-03-13T00:16:49.845Z,0.01
2023-03-13T00:17:16.856Z,0.02
2023-03-13T00:17:38.586Z,0.03
2023-03-13T00:18:01.241Z,0.03
2023-03-13T00:18:23.026Z,0.04
2023-03-13T00:18:48.389Z,0.04
2023-03-13T00:19:10.353Z,0.05
2023-03-13T00:19:32.168Z,0.05
2023-03-13T00:19:56.961Z,0.06
2023-03-13T00:20:21.283Z,0.06
2023-03-13T00:20:48.357Z,0.06
2023-03-13T00:22:06.596Z,0.09
2023-03-13T00:22:34.110Z,0.03
2023-03-13T00:23:01.109Z,0.02
2023-03-13T00:23:29.859Z,0.01
2023-03-13T00:23:53.125Z,-0.00
2023-03-13T00:24:16.844Z,-0.02
2023-03-13T00:24:41.134Z,-0.03
2023-03-13T00:25:04.676Z,-0.04
2023-03-13T00:25:31.454Z,-0.05
2023-03-13T00:25:58.657Z,-0.06
2023-03-13T00:26:22.404Z,-0.07
2023-03-13T00:26:45.910Z,-0.06
2023-03-13T00:27:08.926Z,-0.07
2023-03-13T00:27:35.088Z,-0.07
2023-03-13T00:27:58.208Z,-0.06
2023-03-13T00:28:53.249Z,-0.05
2023-03-13T00:29:17.381Z,-0.05
2023-03-13T00:29:47.554Z,-0.05
2023-03-13T00:30:19.050Z,-0.04
2023-03-13T00:30:51.405Z,-0.04
2023-03-13T00:31:18.629Z,-0.04
2023-03-13T00:31:43.561Z,-0.04
2023-03-13T00:32:07.733Z,-0.04
2023-03-13T00:32:32.362Z,-0.04
2023-03-13T00:32:55.948Z,-0.04
2023-03-13T00:33:20.076Z,-0.05
2023-03-13T00:33:44.317Z,-0.06
2023-03-13T00:34:07.432Z,-0.07
2023-03-13T00:34:31.872Z,-0.07
2023-03-13T00:34:55.191Z,-0.08
2023-03-13T00:35:18.579Z,-0.10
2023-03-13T00:35:42.390Z,-0.10
2023-03-13T00:36:06.508Z,-0.11
2023-03-13T00:36:30.625Z,-0.11
2023-03-13T00:36:56.197Z,-0.13
2023-03-13T00:37:20.627Z,-0.13
2023-03-13T00:37:50.181Z,-0.13
2023-03-13T00:38:16.569Z,-0.13
2023-03-13T00:38:39.995Z,-0.12
2023-03-13T00:39:03.720Z,-0.12
2023-03-13T00:39:26.728Z,-0.12
2023-03-13T00:39:49.844Z,-0.12
2023-03-13T00:40:18.176Z,-0.13
2023-03-13T00:40:41.496Z,-0.12
2023-03-13T00:41:06.856Z,-0.13
2023-03-13T00:41:32.959Z,-0.13
2023-03-13T00:41:56.355Z,-0.12
2023-03-13T00:42:22.251Z,-0.13
2023-03-13T00:42:45.863Z,-0.13
2023-03-13T00:43:09.074Z,-0.14
2023-03-13T00:43:34.231Z,-0.15
2023-03-13T00:43:57.454Z,-0.16
2023-03-13T00:44:20.673Z,-0.17
2023-03-13T00:44:44.204Z,-0.18
2023-03-13T00:45:07.712Z,-0.20
2023-03-13T00:45:32.776Z,-0.22
2023-03-13T00:46:01.124Z,-0.24
2023-03-13T00:46:26.038Z,-0.24
2023-03-13T00:46:49.510Z,-0.27
2023-03-13T00:47:37.755Z,-0.27
2023-03-13T00:48:00.776Z,-0.29
2023-03-13T00:48:24.489Z,-0.29
2023-03-13T00:49:16.646Z,-0.30
2023-03-13T00:49:39.794Z,-0.29
2023-03-13T00:50:04.353Z,-0.29
2023-03-13T00:50:28.239Z,-0.29
2023-03-13T00:50:51.456Z,-0.28
2023-03-13T00:51:40.651Z,-0.28
2023-03-13T00:52:04.142Z,-0.27
2023-03-13T00:52:28.413Z,-0.28
2023-03-13T00:52:51.626Z,-0.27
2023-03-13T00:53:14.843Z,-0.28
2023-03-13T00:53:38.370Z,-0.29
2023-03-13T00:54:06.697Z,-0.30
2023-03-13T00:54:37.380Z,-0.31
2023-03-13T00:55:01.831Z,-0.32
2023-03-13T00:55:25.370Z,-0.33
2023-03-13T00:55:53.471Z,-0.33
2023-03-13T00:56:17.093Z,-0.35
2023-03-13T00:56:40.314Z,-0.36
2023-03-13T00:57:03.634Z,-0.36
2023-03-13T00:57:27.872Z,-0.37
2023-03-13T00:57:50.887Z,-0.38
2023-03-13T00:58:14.115Z,-0.38
2023-03-13T00:58:38.320Z,-0.38
2023-03-13T00:59:02.187Z,-0.37
2023-03-13T00:59:25.489Z,-0.37
2023-03-13T00:59:51.976Z,-0.37
2023-03-13T01:00:44.860Z,-0.36
2023-03-13T01:01:09.202Z,-0.34
2023-03-13T01:01:34.043Z,-0.33
2023-03-13T01:01:58.004Z,-0.32
2023-03-13T01:02:21.319Z,-0.32
2023-03-13T01:02:45.027Z,-0.32
2023-03-13T01:03:09.070Z,-0.31
2023-03-13T01:03:32.587Z,-0.31
2023-03-13T01:04:00.920Z,-0.31
2023-03-13T01:04:29.689Z,-0.32
2023-03-13T01:04:54.324Z,-0.32
2023-03-13T01:05:19.672Z,-0.33
2023-03-13T01:05:42.984Z,-0.34
2023-03-13T01:06:06.633Z,-0.35
2023-03-13T01:06:31.072Z,-0.35
2023-03-13T01:06:54.993Z,-0.36
2023-03-13T01:07:18.205Z,-0.37
2023-03-13T01:07:41.726Z,-0.37
2023-03-13T01:08:05.253Z,-0.38
2023-03-13T01:08:29.285Z,-0.39
2023-03-13T01:08:52.713Z,-0.39
2023-03-13T01:09:41.598Z,-0.39
2023-03-13T01:10:05.427Z,-0.40
2023-03-13T01:10:28.841Z,-0.39
2023-03-13T01:10:57.686Z,-0.38
2023-03-13T01:11:22.540Z,-0.37
2023-03-13T01:11:47.292Z,-0.36
2023-03-13T01:12:10.507Z,-0.35
2023-03-13T01:12:33.949Z,-0.34
2023-03-13T01:12:57.081Z,-0.34
2023-03-13T01:13:21.084Z,-0.32
2023-03-13T01:13:44.394Z,-0.32
2023-03-13T01:14:12.829Z,-0.32
2023-03-13T01:14:42.500Z,-0.32
2023-03-13T01:15:08.363Z,-0.33
2023-03-13T01:15:34.717Z,-0.33
2023-03-13T01:16:06.636Z,-0.35
2023-03-13T01:16:30.594Z,-0.36
2023-03-13T01:16:54.726Z,-0.37
2023-03-13T01:17:17.753Z,-0.38
2023-03-13T01:17:40.714Z,-0.39
2023-03-13T01:18:06.732Z,-0.40
2023-03-13T01:18:35.979Z,-0.42
2023-03-13T01:19:00.635Z,-0.43
2023-03-13T01:19:23.855Z,-0.44
2023-03-13T01:19:47.573Z,-0.44
2023-03-13T01:20:11.815Z,-0.45
2023-03-13T01:20:35.441Z,-0.46
2023-03-13T01:20:58.821Z,-0.47
2023-03-13T01:21:22.190Z,-0.48
2023-03-13T01:21:45.400Z,-0.49
2023-03-13T01:22:11.468Z,-0.49
2023-03-13T01:22:34.588Z,-0.49
2023-03-13T01:22:57.914Z,-0.49
2023-03-13T01:23:21.639Z,-0.49
2023-03-13T01:23:44.785Z,-0.48
2023-03-13T01:24:08.944Z,-0.48
2023-03-13T01:24:35.272Z,-0.47
2023-03-13T01:24:58.598Z,-0.47
2023-03-13T01:25:26.001Z,-0.47
2023-03-13T01:25:50.037Z,-0.47
2023-03-13T01:26:14.684Z,-0.46
2023-03-13T01:27:03.371Z,-0.45
2023-03-13T01:27:26.582Z,-0.45
2023-03-13T01:27:49.635Z,-0.45
2023-03-13T01:28:12.916Z,-0.46
2023-03-13T01:28:37.057Z,-0.47
2023-03-13T01:29:00.167Z,-0.47
2023-03-13T01:29:23.900Z,-0.48
2023-03-13T01:29:47.231Z,-0.50
2023-03-13T01:30:10.729Z,-0.51
2023-03-13T01:30:34.059Z,-0.51
2023-03-13T01:30:59.451Z,-0.52
2023-03-13T01:31:30.880Z,-0.53
2023-03-13T01:31:55.054Z,-0.55
2023-03-13T01:32:18.220Z,-0.56
2023-03-13T01:32:41.725Z,-0.57
2023-03-13T01:33:04.809Z,-0.59
2023-03-13T01:33:27.919Z,-0.60
2023-03-13T01:33:54.104Z,-0.61
2023-03-13T01:34:43.600Z,-0.62
2023-03-13T01:35:08.351Z,-0.62
2023-03-13T01:35:33.791Z,-0.62
2023-03-13T01:36:01.469Z,-0.62
2023-03-13T01:36:26.183Z,-0.60
2023-03-13T01:36:52.493Z,-0.60
2023-03-13T01:37:15.524Z,-0.59
2023-03-13T01:37:38.798Z,-0.58
2023-03-13T01:38:02.322Z,-0.57
2023-03-13T01:38:25.368Z,-0.56
2023-03-13T01:38:49.164Z,-0.56
2023-03-13T01:39:12.222Z,-0.56
2023-03-13T01:39:36.737Z,-0.55
2023-03-13T01:39:59.936Z,-0.55
2023-03-13T01:40:23.058Z,-0.56
2023-03-13T01:40:47.465Z,-0.56
2023-03-13T01:41:11.540Z,-0.57
2023-03-13T01:41:36.068Z,-0.58
2023-03-13T01:42:01.543Z,-0.60
2023-03-13T01:42:25.013Z,-0.62
2023-03-13T01:42:51.152Z,-0.63
2023-03-13T01:43:39.627Z,-0.64
2023-03-13T01:44:02.941Z,-0.68
2023-03-13T01:44:29.903Z,-0.69
2023-03-13T01:44:54.639Z,-0.71
2023-03-13T01:45:41.024Z,-0.73
2023-03-13T01:46:07.448Z,-0.74
2023-03-13T01:46:51.443Z,-0.76
2023-03-13T01:47:34.753Z,-0.77
2023-03-13T01:48:05.433Z,-0.78
2023-03-13T01:48:49.619Z,-0.77
2023-03-13T01:49:14.807Z,-0.77
2023-03-13T01:49:49.334Z,-0.77
2023-03-13T01:50:48.050Z,-0.76
2023-03-13T01:51:27.935Z,-0.76
2023-03-13T01:51:55.784Z,-0.76
2023-03-13T01:52:26.647Z,-0.77
2023-03-13T01:52:55.408Z,-0.78
2023-03-13T01:53:27.334Z,-0.80
2023-03-13T01:54:06.265Z,-0.81
2023-03-13T01:54:32.650Z,-0.83
2023-03-13T01:54:57.498Z,-0.85
2023-03-13T01:55:20.727Z,-0.85
2023-03-13T01:55:45.872Z,-0.86
2023-03-13T01:56:34.745Z,-0.88
2023-03-13T01:56:59.101Z,-0.89
2023-03-13T01:57:25.501Z,-0.89
2023-03-13T01:57:50.955Z,-0.89
2023-03-13T01:58:15.706Z,-0.88
2023-03-13T01:58:38.818Z,-0.88
2023-03-13T01:59:04.414Z,-0.87
2023-03-13T01:59:47.776Z,-0.86
2023-03-13T02:00:13.421Z,-0.85
2023-03-13T02:00:42.779Z,-0.85
2023-03-13T02:01:08.260Z,-0.84
2023-03-13T02:01:41.907Z,-0.84
2023-03-13T02:02:11.040Z,-0.84
2023-03-13T02:02:35.837Z,-0.85
2023-03-13T02:03:01.535Z,-0.86
2023-03-13T02:03:25.634Z,-0.87
2023-03-13T02:03:49.848Z,-0.88
2023-03-13T02:04:14.385Z,-0.89
2023-03-13T02:04:41.792Z,-0.90
2023-03-13T02:05:06.149Z,-0.90
2023-03-13T02:05:30.169Z,-0.92
2023-03-13T02:05:53.795Z,-0.93
2023-03-13T02:06:17.727Z,-0.94
2023-03-13T02:06:41.763Z,-0.94
2023-03-13T02:07:06.425Z,-0.94
2023-03-13T02:07:40.487Z,-0.95
2023-03-13T02:08:05.013Z,-0.94
2023-03-13T02:08:32.737Z,-0.94
2023-03-13T02:08:57.276Z,-0.93
2023-03-13T02:09:21.515Z,-0.93
2023-03-13T02:09:52.813Z,-0.92
2023-03-13T02:10:18.282Z,-0.91
2023-03-13T02:10:49.793Z,-0.90
2023-03-13T02:11:46.146Z,-0.90
2023-03-13T02:12:09.464Z,-0.89
2023-03-13T02:12:34.303Z,-0.88
2023-03-13T02:12:58.029Z,-0.89
2023-03-13T02:13:22.538Z,-0.89
2023-03-13T02:13:49.885Z,-0.89
2023-03-13T02:14:13.405Z,-0.90
2023-03-13T02:14:37.845Z,-0.90
2023-03-13T02:15:03.323Z,-0.91
2023-03-13T02:15:27.860Z,-0.92
2023-03-13T02:15:50.816Z,-0.92
2023-03-13T02:16:14.256Z,-0.93
2023-03-13T02:16:38.451Z,-0.93
2023-03-13T02:17:01.644Z,-0.94
2023-03-13T02:17:34.371Z,-0.94
2023-03-13T02:18:08.378Z,-0.94
2023-03-13T02:18:39.424Z,-0.93
2023-03-13T02:19:39.146Z,-0.91
2023-03-13T02:20:04.308Z,-0.89
2023-03-13T02:20:27.530Z,-0.87
2023-03-13T02:20:51.276Z,-0.85
2023-03-13T02:21:42.189Z,-0.84
2023-03-13T02:22:20.946Z,-0.82
2023-03-13T02:23:06.253Z,-0.81
2023-03-13T02:23:34.294Z,-0.81
2023-03-13T02:24:09.564Z,-0.81
2023-03-13T02:24:35.230Z,-0.82
2023-03-13T02:24:58.140Z,-0.82
2023-03-13T02:25:24.120Z,-0.83
2023-03-13T02:25:49.692Z,-0.84
2023-03-13T02:26:18.141Z,-0.85
2023-03-13T02:26:41.747Z,-0.85
2023-03-13T02:27:12.733Z,-0.86
2023-03-13T02:27:36.776Z,-0.87
2023-03-13T02:28:05.813Z,-0.88
2023-03-13T02:28:36.086Z,-0.89
2023-03-13T02:29:02.066Z,-0.89
2023-03-13T02:29:25.383Z,-0.90
2023-03-13T02:29:48.394Z,-0.90
2023-03-13T02:30:37.607Z,-0.89
2023-03-13T02:31:01.030Z,-0.89
2023-03-13T02:31:27.568Z,-0.87
2023-03-13T02:31:50.774Z,-0.86
2023-03-13T02:32:14.254Z,-0.85
2023-03-13T02:32:37.391Z,-0.83
2023-03-13T02:33:00.924Z,-0.83
2023-03-13T02:33:26.557Z,-0.81
2023-03-13T02:33:54.670Z,-0.80
2023-03-13T02:34:19.540Z,-0.79
2023-03-13T02:34:43.970Z,-0.79
2023-03-13T02:35:10.808Z,-0.79
2023-03-13T02:35:34.821Z,-0.79
2023-03-13T02:35:59.067Z,-0.80
2023-03-13T02:36:22.305Z,-0.81
2023-03-13T02:36:47.722Z,-0.81
2023-03-13T02:37:13.006Z,-0.82
2023-03-13T02:37:37.124Z,-0.83
2023-03-13T02:38:01.770Z,-0.83
2023-03-13T02:38:25.907Z,-0.84
2023-03-13T02:38:51.880Z,-0.85
2023-03-13T02:39:15.203Z,-0.85
2023-03-13T02:39:39.032Z,-0.85
2023-03-13T02:40:32.169Z,-0.85
2023-03-13T02:40:59.522Z,-0.83
2023-03-13T02:41:24.270Z,-0.82
2023-03-13T02:41:47.690Z,-0.81
2023-03-13T02:42:10.907Z,-0.81
2023-03-13T02:42:36.997Z,-0.79
2023-03-13T02:43:00.918Z,-0.78
2023-03-13T02:43:26.288Z,-0.77
2023-03-13T02:44:14.659Z,-0.76
2023-03-13T02:44:39.040Z,-0.77
2023-03-13T02:45:02.835Z,-0.77
2023-03-13T02:45:26.151Z,-0.77
2023-03-13T02:46:09.209Z,-0.78
2023-03-13T02:46:46.815Z,-0.80
2023-03-13T02:47:12.926Z,-0.81
2023-03-13T02:47:36.246Z,-0.83
2023-03-13T02:47:59.375Z,-0.83
2023-03-13T02:48:29.916Z,-0.85
2023-03-13T02:48:55.119Z,-0.85
2023-03-13T02:49:20.670Z,-0.87
2023-03-13T02:49:44.092Z,-0.89
2023-03-13T02:50:07.613Z,-0.90
2023-03-13T02:50:31.054Z,-0.90
2023-03-13T02:50:54.537Z,-0.90
2023-03-13T02:51:24.062Z,-0.90
2023-03-13T02:51:47.434Z,-0.89
2023-03-13T02:52:14.438Z,-0.88
2023-03-13T02:52:43.586Z,-0.87
2023-03-13T02:53:07.217Z,-0.87
2023-03-13T02:53:33.203Z,-0.86
2023-03-13T02:53:57.611Z,-0.85
2023-03-13T02:54:25.037Z,-0.85
2023-03-13T02:54:48.335Z,-0.85
2023-03-13T02:55:18.197Z,-0.84
2023-03-13T02:55:41.857Z,-0.84
2023-03-13T02:56:06.495Z,-0.84
2023-03-13T02:56:30.228Z,-0.85
2023-03-13T02:56:55.282Z,-0.86
2023-03-13T02:57:18.803Z,-0.87
2023-03-13T02:57:42.714Z,-0.89
2023-03-13T02:58:07.798Z,-0.90
2023-03-13T02:58:49.172Z,-0.91
2023-03-13T02:59:13.864Z,-0.93
2023-03-13T02:59:39.332Z,-0.94
2023-03-13T03:00:02.440Z,-0.96
2023-03-13T03:00:27.913Z,-0.97
2023-03-13T03:00:51.853Z,-0.97
2023-03-13T03:01:15.111Z,-0.99
2023-03-13T03:01:40.029Z,-1.00
2023-03-13T03:02:03.536Z,-1.00
2023-03-13T03:02:26.549Z,-1.02
2023-03-13T03:03:15.742Z,-1.01
2023-03-13T03:03:38.933Z,-1.02
2023-03-13T03:04:05.764Z,-1.01
2023-03-13T03:04:31.119Z,-1.00
2023-03-13T03:04:54.951Z,-1.00
2023-03-13T03:05:17.963Z,-0.99
2023-03-13T03:05:42.201Z,-0.98
2023-03-13T03:06:05.835Z,-0.97
2023-03-13T03:06:54.706Z,-0.96
2023-03-13T03:07:18.038Z,-0.94
2023-03-13T03:07:41.350Z,-0.94
2023-03-13T03:08:04.771Z,-0.93
2023-03-13T03:08:28.090Z,-0.94
2023-03-13T03:09:16.472Z,-0.95
2023-03-13T03:09:39.580Z,-0.96
2023-03-13T03:10:11.170Z,-0.98
2023-03-13T03:10:35.937Z,-0.99
2023-03-13T03:10:59.565Z,-1.00
2023-03-13T03:11:23.302Z,-1.01
2023-03-13T03:11:50.196Z,-1.02
2023-03-13T03:12:15.556Z,-1.02
2023-03-13T03:12:38.969Z,-1.04
2023-03-13T03:13:03.925Z,-1.05
2023-03-13T03:13:28.226Z,-1.06
2023-03-13T03:13:51.898Z,-1.06
2023-03-13T03:14:15.620Z,-1.07
2023-03-13T03:14:41.087Z,-1.07
2023-03-13T03:15:05.156Z,-1.07
2023-03-13T03:15:28.914Z,-1.06
2023-03-13T03:15:52.270Z,-1.05
2023-03-13T03:16:18.731Z,-1.04
2023-03-13T03:16:42.037Z,-1.03
2023-03-13T03:17:10.513Z,-1.01
2023-03-13T03:17:34.034Z,-1.01
2023-03-13T03:17:58.296Z,-1.00
2023-03-13T03:18:22.737Z,-0.99
2023-03-13T03:18:45.945Z,-0.99
2023-03-13T03:19:09.664Z,-0.99
2023-03-13T03:19:32.787Z,-0.98
2023-03-13T03:19:56.206Z,-0.98
2023-03-13T03:20:19.408Z,-0.99
2023-03-13T03:20:43.693Z,-0.99
2023-03-13T03:21:09.113Z,-1.00
2023-03-13T03:21:35.175Z,-1.01
2023-03-13T03:21:58.306Z,-1.01
2023-03-13T03:22:21.524Z,-1.02
2023-03-13T03:22:44.658Z,-1.03
2023-03-13T03:23:07.761Z,-1.03
2023-03-13T03:23:30.968Z,-1.04
2023-03-13T03:23:54.284Z,-1.05
2023-03-13T03:24:17.682Z,-1.06
2023-03-13T03:24:41.127Z,-1.07
2023-03-13T03:25:06.406Z,-1.08
2023-03-13T03:25:29.602Z,-1.09
2023-03-13T03:25:53.126Z,-1.10
2023-03-13T03:26:17.610Z,-1.11
2023-03-13T03:26:40.682Z,-1.12
2023-03-13T03:27:08.614Z,-1.12
2023-03-13T03:27:36.659Z,-1.13
2023-03-13T03:28:01.380Z,-1.12
2023-03-13T03:28:25.009Z,-1.12
2023-03-13T03:28:48.240Z,-1.11
2023-03-13T03:29:14.506Z,-1.11
2023-03-13T03:29:39.049Z,-1.10
2023-03-13T03:30:03.083Z,-1.08
2023-03-13T03:30:26.912Z,-1.08
2023-03-13T03:30:50.354Z,-1.08
2023-03-13T03:31:15.030Z,-1.07
2023-03-13T03:31:38.412Z,-1.05
2023-03-13T03:32:01.887Z,-1.05
2023-03-13T03:32:25.303Z,-1.04
2023-03-13T03:32:48.457Z,-1.04
2023-03-13T03:33:11.705Z,-1.04
2023-03-13T03:33:39.296Z,-1.04
2023-03-13T03:34:03.958Z,-1.05
2023-03-13T03:34:27.165Z,-1.06
2023-03-13T03:34:51.397Z,-1.07
2023-03-13T03:35:17.941Z,-1.08
2023-03-13T03:35:41.239Z,-1.08
2023-03-13T03:36:05.671Z,-1.10
2023-03-13T03:36:29.269Z,-1.11
2023-03-13T03:36:52.387Z,-1.12
2023-03-13T03:37:15.502Z,-1.13
2023-03-13T03:37:39.535Z,-1.14
2023-03-13T03:38:02.648Z,-1.15
2023-03-13T03:38:25.877Z,-1.15
2023-03-13T03:39:14.530Z,-1.16
2023-03-13T03:39:37.766Z,-1.16
2023-03-13T03:40:01.298Z,-1.16
2023-03-13T03:40:26.035Z,-1.15
2023-03-13T03:40:55.185Z,-1.14
2023-03-13T03:41:19.521Z,-1.14
2023-03-13T03:41:42.946Z,-1.13
2023-03-13T03:42:06.571Z,-1.11
2023-03-13T03:42:29.794Z,-1.11
2023-03-13T03:43:12.605Z,-1.09
2023-03-13T03:43:54.469Z,-1.09
2023-03-13T03:44:20.988Z,-1.08
2023-03-13T03:44:53.895Z,-1.08
2023-03-13T03:45:17.113Z,-1.09
2023-03-13T03:45:40.733Z,-1.10
2023-03-13T03:46:05.829Z,-1.11
2023-03-13T03:46:29.671Z,-1.12
2023-03-13T03:46:53.247Z,-1.13
2023-03-13T03:47:17.154Z,-1.14
2023-03-13T03:47:42.747Z,-1.15
2023-03-13T03:48:06.168Z,-1.16
2023-03-13T03:48:31.429Z,-1.18
2023-03-13T03:48:55.269Z,-1.19
2023-03-13T03:49:18.886Z,-1.19
2023-03-13T03:49:42.409Z,-1.21
2023-03-13T03:50:07.878Z,-1.21
2023-03-13T03:50:36.819Z,-1.22
2023-03-13T03:51:00.776Z,-1.23
2023-03-13T03:51:25.604Z,-1.22
2023-03-13T03:51:49.742Z,-1.22
2023-03-13T03:52:17.457Z,-1.21
2023-03-13T03:52:40.878Z,-1.20
2023-03-13T03:53:04.003Z,-1.19
2023-03-13T03:53:28.255Z,-1.18
2023-03-13T03:53:51.446Z,-1.17
2023-03-13T03:54:14.560Z,-1.16
2023-03-13T03:54:37.822Z,-1.15
2023-03-13T03:55:00.998Z,-1.13
2023-03-13T03:55:24.927Z,-1.13
2023-03-13T03:55:48.246Z,-1.12
2023-03-13T03:56:11.563Z,-1.11
2023-03-13T03:56:39.462Z,-1.11
2023-03-13T03:57:03.843Z,-1.12
2023-03-13T03:57:27.862Z,-1.12
2023-03-13T03:58:16.241Z,-1.12
2023-03-13T03:58:58.582Z,-1.14
2023-03-13T03:59:40.820Z,-1.15
2023-03-13T04:00:07.853Z,-1.15
2023-03-13T04:00:36.661Z,-1.16
2023-03-13T04:00:59.979Z,-1.16
2023-03-13T04:01:23.107Z,-1.16
2023-03-13T04:01:46.357Z,-1.17
2023-03-13T04:02:12.205Z,-1.17
2023-03-13T04:02:38.215Z,-1.17
2023-03-13T04:03:03.417Z,-1.16
2023-03-13T04:03:28.128Z,-1.15
2023-03-13T04:03:51.329Z,-1.14
2023-03-13T04:04:15.329Z,-1.13
2023-03-13T04:04:42.265Z,-1.11
2023-03-13T04:05:17.921Z,-1.10
2023-03-13T04:05:41.802Z,-1.09
2023-03-13T04:06:07.173Z,-1.08
2023-03-13T04:06:30.638Z,-1.07
2023-03-13T04:06:54.079Z,-1.07
2023-03-13T04:07:17.481Z,-1.06
2023-03-13T04:07:40.598Z,-1.05
2023-03-13T04:08:04.166Z,-1.06
2023-03-13T04:08:27.892Z,-1.06
2023-03-13T04:08:51.799Z,-1.06
2023-03-13T04:09:19.390Z,-1.07
2023-03-13T04:09:43.749Z,-1.07
2023-03-13T04:10:12.883Z,-1.08
2023-03-13T04:10:40.286Z,-1.08
2023-03-13T04:11:03.997Z,-1.09
2023-03-13T04:11:31.740Z,-1.10
2023-03-13T04:11:56.183Z,-1.10
2023-03-13T04:12:19.952Z,-1.10
2023-03-13T04:12:43.945Z,-1.10
2023-03-13T04:13:07.769Z,-1.10
2023-03-13T04:13:31.497Z,-1.09
2023-03-13T04:13:55.663Z,-1.09
2023-03-13T04:14:19.156Z,-1.07
2023-03-13T04:14:42.318Z,-1.07
2023-03-13T04:15:08.043Z,-1.06
2023-03-13T04:15:32.715Z,-1.04
2023-03-13T04:15:55.806Z,-1.03
2023-03-13T04:16:19.278Z,-1.07
2023-03-13T04:16:49.683Z,-1.00
2023-03-13T04:17:12.862Z,-1.00
2023-03-13T04:18:00.898Z,-1.00
2023-03-13T04:18:24.223Z,-0.99
2023-03-13T04:18:47.634Z,-1.00
2023-03-13T04:19:11.972Z,-1.01
2023-03-13T04:19:35.082Z,-1.01
2023-03-13T04:19:58.301Z,-1.01
2023-03-13T04:20:22.624Z,-1.02
2023-03-13T04:20:46.687Z,-1.03
2023-03-13T04:21:09.803Z,-1.03
2023-03-13T04:21:40.475Z,-1.03
2023-03-13T04:22:07.164Z,-1.03
2023-03-13T04:22:30.892Z,-1.04
2023-03-13T04:22:57.733Z,-1.03
2023-03-13T04:23:20.911Z,-1.04
2023-03-13T04:23:44.230Z,-1.04
2023-03-13T04:24:08.972Z,-1.03
2023-03-13T04:24:32.908Z,-1.03
2023-03-13T04:24:56.131Z,-1.03
2023-03-13T04:25:19.529Z,-1.02
2023-03-13T04:25:44.813Z,-1.00
2023-03-13T04:26:08.332Z,-0.98
2023-03-13T04:26:31.993Z,-0.96
2023-03-13T04:26:55.993Z,-0.95
2023-03-13T04:27:19.071Z,-0.94
2023-03-13T04:27:42.728Z,-0.92
2023-03-13T04:28:05.959Z,-0.90
2023-03-13T04:28:34.483Z,-0.89
2023-03-13T04:28:59.028Z,-0.89
2023-03-13T04:29:43.412Z,-0.87
2023-03-13T04:30:25.246Z,-0.87
2023-03-13T04:31:27.218Z,-0.87
2023-03-13T04:32:07.314Z,-0.86
2023-03-13T04:32:30.535Z,-0.86
2023-03-13T04:33:17.883Z,-0.86
2023-03-13T04:34:01.965Z,-0.86
2023-03-13T04:34:33.967Z,-0.87
2023-03-13T04:35:15.797Z,-0.86
2023-03-13T04:35:58.397Z,-0.86
2023-03-13T04:36:47.443Z,-0.86
2023-03-13T04:37:29.250Z,-0.85
2023-03-13T04:38:28.081Z,-0.82
2023-03-13T04:39:02.040Z,-0.80
2023-03-13T04:39:35.191Z,-0.78
2023-03-13T04:40:36.742Z,-0.74
2023-03-13T04:41:22.370Z,-0.72
2023-03-13T04:42:04.494Z,-0.71
2023-03-13T04:42:55.749Z,-0.71
2023-03-13T04:43:19.049Z,-0.70
2023-03-13T04:44:03.905Z,-0.71
2023-03-13T04:44:55.723Z,-0.72
2023-03-13T04:45:37.841Z,-0.72
2023-03-13T04:46:16.001Z,-0.72
2023-03-13T04:46:48.512Z,-0.72
2023-03-13T04:47:31.364Z,-0.72
2023-03-13T04:48:26.916Z,-0.71
2023-03-13T04:49:16.092Z,-0.71
2023-03-13T04:49:56.287Z,-0.68
2023-03-13T04:50:37.940Z,-0.66
2023-03-13T04:51:14.020Z,-0.64
2023-03-13T04:51:53.798Z,-0.61
2023-03-13T04:52:32.381Z,-0.57
2023-03-13T04:53:17.972Z,-0.55
2023-03-13T04:53:44.665Z,-0.53
2023-03-13T04:54:23.937Z,-0.52
2023-03-13T04:55:05.151Z,-0.52
2023-03-13T04:55:42.595Z,-0.51
2023-03-13T04:56:41.681Z,-0.51
2023-03-13T04:57:37.249Z,-0.51
2023-03-13T04:58:28.279Z,-0.51
2023-03-13T04:59:23.911Z,-0.51
2023-03-13T04:59:59.193Z,-0.51
2023-03-13T05:00:46.873Z,-0.52
2023-03-13T05:01:26.267Z,-0.52
2023-03-13T05:02:01.197Z,-0.51
2023-03-13T05:02:43.286Z,-0.50
2023-03-13T05:03:24.058Z,-0.47
2023-03-13T05:03:58.209Z,-0.45
2023-03-13T05:04:53.890Z,-0.42
2023-03-13T05:05:46.724Z,-0.37
2023-03-13T05:06:29.679Z,-0.34
2023-03-13T05:07:14.044Z,-0.31
2023-03-13T05:07:55.384Z,-0.30
2023-03-13T05:08:27.600Z,-0.30
2023-03-13T05:09:23.345Z,-0.29
2023-03-13T05:10:10.096Z,-0.29
2023-03-13T05:11:03.571Z,-0.29
2023-03-13T05:11:50.923Z,-0.29
2023-03-13T05:12:44.206Z,-0.29
2023-03-13T05:13:45.630Z,-0.29
2023-03-13T05:14:29.243Z,-0.29
2023-03-13T05:15:31.647Z,-0.29
2023-03-13T05:16:09.933Z,-0.28
2023-03-13T05:16:53.562Z,-0.25
2023-03-13T05:17:49.102Z,-0.21
2023-03-13T05:18:15.170Z,-0.20
2023-03-13T05:18:44.520Z,-0.18
2023-03-13T05:19:26.371Z,-0.15
2023-03-13T05:21:17.632Z,-0.14
2023-03-13T05:22:01.298Z,-0.14
2023-03-13T05:23:17.597Z,-0.17
2023-03-13T05:23:57.684Z,-0.17
2023-03-13T05:24:32.871Z,-0.18
2023-03-13T05:25:17.690Z,-0.19
2023-03-13T05:25:43.656Z,-0.19
2023-03-13T05:27:07.819Z,-0.19
2023-03-13T05:27:51.286Z,-0.18
2023-03-13T05:28:41.221Z,-0.18
2023-03-13T05:29:17.704Z,-0.18
2023-03-13T05:29:53.807Z,-0.17
2023-03-13T05:30:44.676Z,-0.15
2023-03-13T05:31:26.913Z,-0.12
2023-03-13T05:32:33.070Z,-0.08
2023-03-13T05:33:25.617Z,-0.04
2023-03-13T05:34:12.049Z,-0.03
2023-03-13T05:34:53.984Z,-0.02
2023-03-13T05:35:46.690Z,-0.03
2023-03-13T05:36:23.601Z,-0.04
2023-03-13T05:36:58.152Z,-0.05
2023-03-13T05:37:49.483Z,-0.06
2023-03-13T05:38:26.102Z,-0.05
2023-03-13T05:39:21.844Z,-0.06
2023-03-13T05:39:45.380Z,-0.06
2023-03-13T05:40:53.070Z,-0.06
2023-03-13T05:41:41.440Z,-0.06
2023-03-13T05:42:23.272Z,-0.05
2023-03-13T05:43:05.306Z,-0.03
2023-03-13T05:43:57.775Z,0.00
2023-03-13T05:44:50.549Z,0.04
2023-03-13T05:45:37.034Z,0.07
2023-03-13T05:46:21.108Z,0.09
2023-03-13T05:46:55.018Z,0.12
2023-03-13T05:48:01.800Z,0.13
2023-03-13T05:48:35.449Z,0.14
2023-03-13T05:49:20.452Z,0.14
2023-03-13T05:50:02.642Z,0.15
2023-03-13T05:50:44.688Z,0.15
2023-03-13T05:51:27.619Z,0.15
2023-03-13T05:52:11.555Z,0.16
2023-03-13T05:52:44.590Z,0.16
2023-03-13T05:53:26.520Z,0.17
2023-03-13T05:54:05.692Z,0.18
2023-03-13T05:55:21.901Z,0.20
2023-03-13T05:56:28.145Z,0.20
2023-03-13T05:57:37.500Z,0.21
2023-03-13T05:58:16.262Z,0.22
2023-03-13T05:59:53.730Z,0.21
2023-03-13T06:00:36.500Z,0.22
2023-03-13T06:01:21.010Z,0.25
2023-03-13T06:01:54.003Z,0.26
2023-03-13T06:02:26.340Z,0.28
2023-03-13T06:02:52.504Z,0.30
2023-03-13T06:03:21.210Z,0.32
2023-03-13T06:03:47.547Z,0.34
2023-03-13T06:04:11.545Z,0.35
2023-03-13T06:04:36.607Z,0.36
2023-03-13T06:05:00.020Z,0.37
2023-03-13T06:05:23.570Z,0.38
2023-03-13T06:05:46.780Z,0.38
2023-03-13T06:06:21.158Z,0.38
2023-03-13T06:06:49.267Z,0.38
2023-03-13T06:07:38.769Z,0.38
2023-03-13T06:08:03.215Z,0.37
2023-03-13T06:08:28.064Z,0.38
2023-03-13T06:08:53.121Z,0.37
2023-03-13T06:09:17.055Z,0.38
2023-03-13T06:09:41.194Z,0.38
2023-03-13T06:10:05.535Z,0.38
2023-03-13T06:10:29.259Z,0.38
2023-03-13T06:10:52.269Z,0.39
2023-03-13T06:11:15.595Z,0.40
2023-03-13T06:11:38.708Z,0.41
2023-03-13T06:12:02.056Z,0.41
2023-03-13T06:12:25.546Z,0.41
2023-03-13T06:12:54.418Z,0.41
2023-03-13T06:13:24.277Z,0.41
2023-03-13T06:13:51.353Z,0.42
2023-03-13T06:14:27.675Z,0.41
2023-03-13T06:15:03.766Z,0.40
2023-03-13T06:15:54.649Z,0.40
2023-03-13T06:16:36.836Z,0.39
2023-03-13T06:17:16.106Z,0.39
2023-03-13T06:17:39.282Z,0.39
2023-03-13T06:18:02.437Z,0.38
2023-03-13T06:18:25.967Z,0.38
2023-03-13T06:18:49.180Z,0.38
2023-03-13T06:19:12.305Z,0.38
2023-03-13T06:19:35.406Z,0.39
2023-03-13T06:20:06.205Z,0.39
2023-03-13T06:20:30.332Z,0.41
2023-03-13T06:21:00.600Z,0.42
2023-03-13T06:21:25.658Z,0.43
2023-03-13T06:21:50.519Z,0.46
2023-03-13T06:22:17.218Z,0.47
2023-03-13T06:22:41.141Z,0.50